createdAt,value
2018-12-04T00:05:46.327Z,98016.53
2018-12-04T00:11:49.644Z,98020.66
2018-12-04T00:17:53.037Z,98030.28
2018-12-04T00:23:56.366Z,98047.41
2018-12-04T00:29:59.706Z,98056.63
2018-12-04T00:36:03.048Z,98066.66
2018-12-04T00:42:06.361Z,98081.75
2018-12-04T00:48:09.693Z,98093.20
2018-12-04T00:54:12.997Z,98128.05
2018-12-04T01:00:16.453Z,98157.52
2018-12-04T01:06:19.785Z,98190.52
2018-12-04T01:12:23.104Z,98199.14
2018-12-04T01:18:26.503Z,98220.05
2018-12-04T01:24:29.816Z,98250.22
2018-12-04T01:30:33.221Z,98265.03
2018-12-04T01:36:36.533Z,98289.73
2018-12-04T01:42:39.853Z,98310.11
2018-12-04T01:54:52.624Z,98352.58
2018-12-04T02:00:55.929Z,98382.55
2018-12-04T02:06:59.259Z,98388.23
2018-12-04T02:13:02.561Z,98411.51
2018-12-04T02:19:05.910Z,98421.27
2018-12-04T02:25:09.225Z,98439.66
2018-12-04T02:31:12.524Z,98462.37
2018-12-04T02:37:15.822Z,98478.14
2018-12-04T02:43:19.166Z,98485.49
2018-12-04T02:49:22.460Z,98509.34
2018-12-04T02:55:25.764Z,98518.92
2018-12-04T03:01:29.052Z,98542.53
2018-12-04T03:07:32.365Z,98561.20
2018-12-04T03:13:35.662Z,98580.27
2018-12-04T03:19:39.002Z,98595.25
2018-12-04T03:25:42.317Z,98611.39
2018-12-04T03:31:45.664Z,98615.95
2018-12-04T03:37:49.083Z,98631.72
2018-12-04T03:43:52.463Z,98642.02
2018-12-04T03:49:55.767Z,98655.58
2018-12-04T03:55:59.086Z,98664.79
2018-12-04T04:02:02.443Z,98683.52
2018-12-04T04:08:05.765Z,98702.28
2018-12-04T04:14:09.075Z,98715.73
2018-12-04T04:20:12.391Z,98727.69
2018-12-04T04:26:15.717Z,98740.91
2018-12-04T04:32:19.114Z,98754.56
2018-12-04T04:38:22.445Z,98763.41
2018-12-04T04:44:25.769Z,98777.75
2018-12-04T04:50:29.226Z,98783.94
2018-12-04T04:56:32.551Z,98788.49
2018-12-04T05:02:35.873Z,98794.87
2018-12-04T05:08:39.178Z,98793.27
2018-12-04T05:14:42.485Z,98811.11
2018-12-04T05:20:45.800Z,98833.06
2018-12-04T05:26:49.133Z,98842.70
2018-12-04T05:32:52.496Z,98851.61
2018-12-04T05:38:55.811Z,98878.63
2018-12-04T05:44:59.131Z,98884.42
2018-12-04T05:51:02.453Z,98899.40
2018-12-04T05:57:05.771Z,98916.73
2018-12-04T06:03:09.075Z,98925.23
2018-12-04T06:09:12.399Z,98946.49
2018-12-04T06:15:15.742Z,98953.38
2018-12-04T06:21:19.053Z,98970.51
2018-12-04T06:27:22.404Z,98982.05
2018-12-04T06:33:25.711Z,99004.59
2018-12-04T06:39:29.020Z,99022.44
2018-12-04T06:45:32.339Z,99043.27
2018-12-04T06:51:35.665Z,99063.11
2018-12-04T06:57:38.968Z,99072.39
2018-12-04T07:03:42.271Z,99086.33
2018-12-04T07:09:45.593Z,99105.86
2018-12-04T07:15:48.907Z,99118.75
2018-12-04T07:21:52.205Z,99140.59
2018-12-04T07:27:55.528Z,99161.91
2018-12-04T07:33:58.849Z,99183.81
2018-12-04T07:40:02.158Z,99193.64
2018-12-04T07:46:05.466Z,99203.90
2018-12-04T07:52:08.770Z,99218.48
2018-12-04T07:58:12.087Z,99235.17
2018-12-04T08:04:15.413Z,99238.98
2018-12-04T08:10:18.725Z,99256.39
2018-12-04T08:16:22.069Z,99267.34
2018-12-04T08:22:25.374Z,99280.57
2018-12-04T08:28:28.679Z,99301.89
2018-12-04T08:34:32.011Z,99310.80
2018-12-04T08:40:35.316Z,99315.13
2018-12-04T08:46:38.628Z,99336.45
2018-12-04T08:52:41.946Z,99350.44
2018-12-04T08:58:45.277Z,99364.39
2018-12-04T09:04:48.580Z,99376.67
2018-12-04T09:10:51.884Z,99391.47
2018-12-04T09:16:55.208Z,99408.59
2018-12-04T09:22:58.653Z,99417.00
2018-12-04T09:29:02.132Z,99429.44
2018-12-04T09:35:05.969Z,99447.61
2018-12-04T09:41:09.271Z,99450.83
2018-12-04T09:47:12.577Z,99465.56
2018-12-04T09:53:15.883Z,99469.30
2018-12-04T09:59:19.295Z,99492.48
2018-12-04T10:05:22.726Z,99509.92
2018-12-04T10:11:26.050Z,99517.72
2018-12-04T10:17:29.424Z,99524.58
2018-12-04T10:23:32.748Z,99532.41
2018-12-04T10:29:36.049Z,99540.55
2018-12-04T10:35:49.376Z,99547.67
2018-12-04T10:41:52.692Z,99546.48
2018-12-04T10:47:56.026Z,99543.80
2018-12-04T10:53:59.321Z,99555.02
2018-12-04T11:00:02.631Z,99570.61
2018-12-04T11:06:06.358Z,99577.48
2018-12-04T11:12:12.204Z,99595.08
2018-12-04T11:18:14.985Z,99608.34
2018-12-04T11:24:18.296Z,99610.26
2018-12-04T11:30:21.628Z,99616.59
2018-12-04T11:36:24.939Z,99623.70
2018-12-04T11:42:28.265Z,99632.06
2018-12-04T11:48:31.579Z,99644.17
2018-12-04T11:54:34.894Z,99647.56
2018-12-04T12:00:38.210Z,99660.67
2018-12-04T12:06:41.537Z,99677.47
2018-12-04T12:12:45.653Z,99695.39
2018-12-04T12:18:48.957Z,99699.90
2018-12-04T12:24:52.546Z,99710.92
2018-12-04T12:30:55.848Z,99715.09
2018-12-04T12:36:59.164Z,99709.50
2018-12-04T12:43:02.492Z,99709.85
2018-12-04T12:49:05.798Z,99726.66
2018-12-04T12:55:09.123Z,99732.16
2018-12-04T13:01:12.524Z,99741.19
2018-12-04T13:07:15.851Z,99748.70
2018-12-04T13:13:19.172Z,99759.57
2018-12-04T13:19:22.499Z,99770.11
2018-12-04T13:25:25.822Z,99775.77
2018-12-04T13:31:29.178Z,99790.44
2018-12-04T13:37:32.516Z,99796.95
2018-12-04T13:43:35.920Z,99810.61
2018-12-04T13:49:39.217Z,99819.47
2018-12-04T13:55:42.534Z,99831.80
2018-12-04T14:01:45.949Z,99833.81
2018-12-04T14:07:49.240Z,99846.97
2018-12-04T14:13:52.607Z,99855.23
2018-12-04T14:19:55.934Z,99861.56
2018-12-04T14:25:59.235Z,99862.59
2018-12-04T14:32:02.534Z,99872.06
2018-12-04T14:38:05.955Z,99891.84
2018-12-04T14:50:18.518Z,99911.30
2018-12-04T14:56:21.868Z,99919.31
2018-12-04T15:02:25.330Z,99934.17
2018-12-04T15:08:28.856Z,99951.44
2018-12-04T15:14:32.291Z,99963.70
2018-12-04T15:20:35.703Z,99979.97
2018-12-04T15:26:39.900Z,99991.00
2018-12-04T15:32:43.240Z,100000.20
2018-12-04T15:38:46.703Z,100020.41
2018-12-04T15:44:50.101Z,100024.20
2018-12-04T15:50:59.711Z,100037.61
2018-12-04T15:56:58.848Z,100049.63
2018-12-04T16:03:02.169Z,100050.06
2018-12-04T16:09:07.320Z,100062.40
2018-12-04T16:15:10.787Z,100082.30
2018-12-04T16:21:14.197Z,100095.87
2018-12-04T16:27:17.528Z,100103.25
2018-12-04T16:33:20.837Z,100113.36
2018-12-04T16:39:24.149Z,100122.83
2018-12-04T16:45:27.531Z,100130.08
2018-12-04T16:51:31.793Z,100127.83
2018-12-04T16:57:35.109Z,100128.66
2018-12-04T17:03:38.449Z,100134.11
2018-12-04T17:09:41.769Z,100150.99
2018-12-04T17:15:45.069Z,100148.34
2018-12-04T17:21:48.374Z,100158.55
2018-12-04T17:27:51.679Z,100154.53
2018-12-04T17:33:55.168Z,100172.98
2018-12-04T17:39:58.636Z,100182.28
2018-12-04T17:46:01.976Z,100189.35
2018-12-04T17:52:05.295Z,100191.27
2018-12-04T17:58:08.632Z,100200.68
2018-12-04T18:04:11.954Z,100211.79
2018-12-04T18:10:15.289Z,100213.40
2018-12-04T18:16:18.611Z,100223.75
2018-12-04T18:22:22.072Z,100227.54
2018-12-04T18:28:25.405Z,100233.28
2018-12-04T18:34:28.727Z,100233.53
2018-12-04T18:40:32.103Z,100238.59
2018-12-04T18:46:35.411Z,100236.23
2018-12-04T18:52:40.199Z,100238.14
2018-12-04T18:58:43.505Z,100234.66
2018-12-04T19:04:46.849Z,100246.30
2018-12-04T19:10:50.200Z,100249.44
2018-12-04T19:16:54.469Z,100256.53
2018-12-04T19:22:57.948Z,100256.78
2018-12-04T19:29:01.283Z,100270.81
2018-12-04T19:35:07.447Z,100285.25
2018-12-04T19:41:10.763Z,100295.59
2018-12-04T19:47:14.084Z,100306.20
2018-12-04T19:53:17.476Z,100314.03
2018-12-04T19:59:20.785Z,100325.09
2018-12-04T20:05:24.089Z,100337.25
2018-12-04T20:11:27.416Z,100347.70
2018-12-04T20:17:30.778Z,100361.05
2018-12-04T20:23:34.185Z,100368.86
2018-12-04T20:29:37.499Z,100372.38
2018-12-04T20:35:40.815Z,100372.73
2018-12-04T20:41:44.130Z,100375.36
2018-12-04T20:47:47.444Z,100371.65
2018-12-04T20:53:50.787Z,100377.03
2018-12-04T20:59:54.128Z,100387.13
2018-12-04T21:05:57.514Z,100396.27
2018-12-04T21:12:00.901Z,100401.59
2018-12-04T21:18:04.232Z,100404.59
2018-12-04T21:24:07.562Z,100408.20
2018-12-04T21:30:16.479Z,100404.00
2018-12-04T21:36:25.311Z,100404.84
2018-12-04T21:42:34.122Z,100410.84
2018-12-04T21:48:37.437Z,100408.77
2018-12-04T21:54:40.770Z,100414.99
2018-12-04T22:00:44.140Z,100414.37
2018-12-04T22:06:47.451Z,100419.16
2018-12-04T22:12:50.772Z,100416.22
2018-12-04T22:18:54.105Z,100425.17
2018-12-04T22:24:57.443Z,100438.94
2018-12-04T22:31:00.779Z,100441.94
2018-12-04T22:37:04.093Z,100444.87
2018-12-04T22:43:07.436Z,100447.99
2018-12-04T22:49:10.757Z,100454.31
2018-12-04T22:55:14.152Z,100453.06
2018-12-04T23:07:50.906Z,100441.94
2018-12-04T23:13:54.319Z,100444.59
2018-12-04T23:19:57.657Z,100448.23
2018-12-04T23:26:01.020Z,100458.34
2018-12-04T23:32:04.371Z,100455.83
2018-12-04T23:38:07.707Z,100454.29
2018-12-04T23:44:11.050Z,100469.32
2018-12-04T23:50:14.381Z,100460.84
2018-12-04T23:56:17.703Z,100465.34
